sensor_id;sensor_type;location;lat;lon;timestamp;P1;durP1;ratioP1;P2;durP2;ratioP2
14849;SDS011;7517;48.400;11.770;2022-10-22T00:02:24;2.57;;;2.37;;
14849;SDS011;7517;48.400;11.770;2022-10-22T00:04:53;2.40;;;2.20;;
14849;SDS011;7517;48.400;11.770;2022-10-22T00:07:21;4.23;;;2.30;;
14849;SDS011;7517;48.400;11.770;2022-10-22T00:09:48;2.20;;;2.00;;
14849;SDS011;7517;48.400;11.770;2022-10-22T00:12:16;4.07;;;2.20;;
14849;SDS011;7517;48.400;11.770;2022-10-22T00:14:43;1.87;;;1.73;;
14849;SDS011;7517;48.400;11.770;2022-10-22T00:17:11;1.90;;;1.57;;
14849;SDS011;7517;48.400;11.770;2022-10-22T00:19:39;1.87;;;1.67;;
14849;SDS011;7517;48.400;11.770;2022-10-22T00:22:07;3.33;;;2.00;;
14849;SDS011;7517;48.400;11.770;2022-10-22T00:24:35;1.90;;;1.80;;
14849;SDS011;7517;48.400;11.770;2022-10-22T00:27:04;2.57;;;2.03;;
14849;SDS011;7517;48.400;11.770;2022-10-22T00:29:33;1.80;;;1.70;;
14849;SDS011;7517;48.400;11.770;2022-10-22T00:32:01;2.03;;;1.73;;
14849;SDS011;7517;48.400;11.770;2022-10-22T00:34:29;1.70;;;1.50;;
14849;SDS011;7517;48.400;11.770;2022-10-22T00:36:56;2.20;;;1.70;;
14849;SDS011;7517;48.400;11.770;2022-10-22T00:39:25;2.70;;;1.53;;
14849;SDS011;7517;48.400;11.770;2022-10-22T00:41:54;1.93;;;1.73;;
14849;SDS011;7517;48.400;11.770;2022-10-22T00:47:33;1.70;;;1.60;;
14849;SDS011;7517;48.400;11.770;2022-10-22T00:50:05;2.10;;;2.00;;
14849;SDS011;7517;48.400;11.770;2022-10-22T00:52:37;1.87;;;1.77;;
14849;SDS011;7517;48.400;11.770;2022-10-22T00:55:07;2.07;;;1.80;;
14849;SDS011;7517;48.400;11.770;2022-10-22T00:57:35;1.70;;;1.60;;
14849;SDS011;7517;48.400;11.770;2022-10-22T01:00:03;2.33;;;1.70;;
14849;SDS011;7517;48.400;11.770;2022-10-22T01:02:32;1.70;;;1.50;;
14849;SDS011;7517;48.400;11.770;2022-10-22T01:04:59;1.73;;;1.43;;
14849;SDS011;7517;48.400;11.770;2022-10-22T01:07:27;1.20;;;0.93;;
14849;SDS011;7517;48.400;11.770;2022-10-22T01:09:58;0.80;;;0.80;;
14849;SDS011;7517;48.400;11.770;2022-10-22T01:12:40;0.50;;;0.50;;
14849;SDS011;7517;48.400;11.770;2022-10-22T01:15:17;0.93;;;0.40;;
14849;SDS011;7517;48.400;11.770;2022-10-22T01:17:55;0.47;;;0.43;;
14849;SDS011;7517;48.400;11.770;2022-10-22T01:20:37;1.77;;;0.57;;
14849;SDS011;7517;48.400;11.770;2022-10-22T01:23:26;0.53;;;0.43;;
14849;SDS011;7517;48.400;11.770;2022-10-22T01:26:34;0.40;;;0.40;;
14849;SDS011;7517;48.400;11.770;2022-10-22T01:29:18;0.47;;;0.47;;
14849;SDS011;7517;48.400;11.770;2022-10-22T01:31:52;0.40;;;0.40;;
14849;SDS011;7517;48.400;11.770;2022-10-22T01:34:25;0.97;;;0.50;;
14849;SDS011;7517;48.400;11.770;2022-10-22T01:36:55;1.07;;;0.50;;
14849;SDS011;7517;48.400;11.770;2022-10-22T01:39:25;0.63;;;0.50;;
14849;SDS011;7517;48.400;11.770;2022-10-22T01:41:56;0.40;;;0.40;;
14849;SDS011;7517;48.400;11.770;2022-10-22T01:44:26;0.70;;;0.57;;
14849;SDS011;7517;48.400;11.770;2022-10-22T01:46:57;0.57;;;0.53;;
14849;SDS011;7517;48.400;11.770;2022-10-22T01:49:49;1.67;;;0.50;;
14849;SDS011;7517;48.400;11.770;2022-10-22T01:52:42;0.50;;;0.50;;
14849;SDS011;7517;48.400;11.770;2022-10-22T01:55:27;0.47;;;0.47;;
14849;SDS011;7517;48.400;11.770;2022-10-22T01:58:09;0.57;;;0.50;;
14849;SDS011;7517;48.400;11.770;2022-10-22T02:00:53;0.40;;;0.40;;
14849;SDS011;7517;48.400;11.770;2022-10-22T02:03:29;0.80;;;0.60;;
14849;SDS011;7517;48.400;11.770;2022-10-22T02:06:07;0.50;;;0.50;;
14849;SDS011;7517;48.400;11.770;2022-10-22T02:08:41;0.60;;;0.50;;
14849;SDS011;7517;48.400;11.770;2022-10-22T02:11:11;0.50;;;0.50;;
14849;SDS011;7517;48.400;11.770;2022-10-22T02:13:42;1.27;;;0.60;;
14849;SDS011;7517;48.400;11.770;2022-10-22T02:16:15;1.00;;;0.67;;
14849;SDS011;7517;48.400;11.770;2022-10-22T02:18:50;0.50;;;0.50;;
14849;SDS011;7517;48.400;11.770;2022-10-22T02:21:21;0.40;;;0.40;;
14849;SDS011;7517;48.400;11.770;2022-10-22T02:23:48;1.07;;;0.77;;
14849;SDS011;7517;48.400;11.770;2022-10-22T02:26:18;1.50;;;0.60;;
14849;SDS011;7517;48.400;11.770;2022-10-22T02:28:55;0.70;;;0.70;;
14849;SDS011;7517;48.400;11.770;2022-10-22T02:31:33;0.77;;;0.70;;
14849;SDS011;7517;48.400;11.770;2022-10-22T02:34:06;0.57;;;0.57;;
14849;SDS011;7517;48.400;11.770;2022-10-22T02:36:38;1.13;;;0.60;;
14849;SDS011;7517;48.400;11.770;2022-10-22T02:39:08;1.33;;;0.70;;
14849;SDS011;7517;48.400;11.770;2022-10-22T02:41:37;0.80;;;0.60;;
14849;SDS011;7517;48.400;11.770;2022-10-22T02:44:06;2.53;;;0.93;;
14849;SDS011;7517;48.400;11.770;2022-10-22T02:46:36;0.63;;;0.50;;
14849;SDS011;7517;48.400;11.770;2022-10-22T02:49:04;0.83;;;0.80;;
14849;SDS011;7517;48.400;11.770;2022-10-22T02:51:31;0.60;;;0.60;;
14849;SDS011;7517;48.400;11.770;2022-10-22T02:53:58;1.03;;;0.90;;
14849;SDS011;7517;48.400;11.770;2022-10-22T02:56:25;0.80;;;0.63;;
14849;SDS011;7517;48.400;11.770;2022-10-22T02:58:53;1.40;;;0.83;;
14849;SDS011;7517;48.400;11.770;2022-10-22T03:01:20;0.77;;;0.77;;
14849;SDS011;7517;48.400;11.770;2022-10-22T03:03:48;0.70;;;0.70;;
14849;SDS011;7517;48.400;11.770;2022-10-22T03:06:16;0.80;;;0.70;;
14849;SDS011;7517;48.400;11.770;2022-10-22T03:08:43;0.77;;;0.70;;
14849;SDS011;7517;48.400;11.770;2022-10-22T03:11:10;0.70;;;0.70;;
14849;SDS011;7517;48.400;11.770;2022-10-22T03:13:38;1.07;;;0.90;;
14849;SDS011;7517;48.400;11.770;2022-10-22T03:16:05;1.67;;;0.70;;
14849;SDS011;7517;48.400;11.770;2022-10-22T03:18:32;0.80;;;0.60;;
14849;SDS011;7517;48.400;11.770;2022-10-22T03:21:03;0.63;;;0.63;;
14849;SDS011;7517;48.400;11.770;2022-10-22T03:23:37;1.63;;;0.80;;
14849;SDS011;7517;48.400;11.770;2022-10-22T03:26:08;0.80;;;0.73;;
14849;SDS011;7517;48.400;11.770;2022-10-22T03:28:39;0.77;;;0.60;;
14849;SDS011;7517;48.400;11.770;2022-10-22T03:31:07;2.07;;;0.63;;
14849;SDS011;7517;48.400;11.770;2022-10-22T03:33:34;0.70;;;0.67;;
14849;SDS011;7517;48.400;11.770;2022-10-22T03:36:03;1.47;;;0.67;;
14849;SDS011;7517;48.400;11.770;2022-10-22T03:38:33;0.83;;;0.70;;
14849;SDS011;7517;48.400;11.770;2022-10-22T03:41:01;0.97;;;0.87;;
14849;SDS011;7517;48.400;11.770;2022-10-22T03:43:29;1.70;;;0.87;;
14849;SDS011;7517;48.400;11.770;2022-10-22T03:45:56;1.47;;;0.57;;
14849;SDS011;7517;48.400;11.770;2022-10-22T03:48:23;0.80;;;0.70;;
14849;SDS011;7517;48.400;11.770;2022-10-22T03:50:50;0.87;;;0.60;;
14849;SDS011;7517;48.400;11.770;2022-10-22T03:53:19;1.17;;;0.60;;
14849;SDS011;7517;48.400;11.770;2022-10-22T03:55:46;0.50;;;0.47;;
14849;SDS011;7517;48.400;11.770;2022-10-22T03:58:13;0.70;;;0.70;;
14849;SDS011;7517;48.400;11.770;2022-10-22T04:00:41;0.50;;;0.50;;
14849;SDS011;7517;48.400;11.770;2022-10-22T04:03:08;0.60;;;0.50;;
14849;SDS011;7517;48.400;11.770;2022-10-22T04:05:35;0.93;;;0.70;;
14849;SDS011;7517;48.400;11.770;2022-10-22T04:08:02;0.67;;;0.47;;
14849;SDS011;7517;48.400;11.770;2022-10-22T04:10:31;2.07;;;0.60;;
14849;SDS011;7517;48.400;11.770;2022-10-22T04:12:58;0.50;;;0.50;;
14849;SDS011;7517;48.400;11.770;2022-10-22T04:15:25;1.63;;;1.03;;
14849;SDS011;7517;48.400;11.770;2022-10-22T04:17:53;0.47;;;0.43;;
14849;SDS011;7517;48.400;11.770;2022-10-22T04:20:20;1.00;;;0.70;;
14849;SDS011;7517;48.400;11.770;2022-10-22T04:22:47;0.40;;;0.40;;
14849;SDS011;7517;48.400;11.770;2022-10-22T04:25:15;1.97;;;0.57;;
14849;SDS011;7517;48.400;11.770;2022-10-22T04:27:43;0.60;;;0.60;;
14849;SDS011;7517;48.400;11.770;2022-10-22T04:30:11;0.53;;;0.40;;
14849;SDS011;7517;48.400;11.770;2022-10-22T04:32:39;0.50;;;0.30;;
14849;SDS011;7517;48.400;11.770;2022-10-22T04:35:06;1.57;;;0.70;;
14849;SDS011;7517;48.400;11.770;2022-10-22T04:37:34;1.37;;;0.53;;
14849;SDS011;7517;48.400;11.770;2022-10-22T04:40:01;1.13;;;0.80;;
14849;SDS011;7517;48.400;11.770;2022-10-22T04:42:29;0.50;;;0.47;;
14849;SDS011;7517;48.400;11.770;2022-10-22T04:44:58;0.90;;;0.60;;
14849;SDS011;7517;48.400;11.770;2022-10-22T04:47:25;0.70;;;0.60;;
14849;SDS011;7517;48.400;11.770;2022-10-22T04:49:52;0.53;;;0.50;;
14849;SDS011;7517;48.400;11.770;2022-10-22T04:52:19;1.00;;;0.57;;
14849;SDS011;7517;48.400;11.770;2022-10-22T04:54:46;0.80;;;0.43;;
14849;SDS011;7517;48.400;11.770;2022-10-22T04:57:13;0.80;;;0.80;;
14849;SDS011;7517;48.400;11.770;2022-10-22T04:59:40;0.53;;;0.50;;
14849;SDS011;7517;48.400;11.770;2022-10-22T05:02:08;0.50;;;0.50;;
14849;SDS011;7517;48.400;11.770;2022-10-22T05:04:35;0.90;;;0.50;;
14849;SDS011;7517;48.400;11.770;2022-10-22T05:07:02;0.77;;;0.77;;
14849;SDS011;7517;48.400;11.770;2022-10-22T05:09:30;0.57;;;0.57;;
14849;SDS011;7517;48.400;11.770;2022-10-22T05:11:57;0.73;;;0.70;;
14849;SDS011;7517;48.400;11.770;2022-10-22T05:14:24;0.90;;;0.70;;
14849;SDS011;7517;48.400;11.770;2022-10-22T05:16:51;0.67;;;0.67;;
14849;SDS011;7517;48.400;11.770;2022-10-22T05:19:22;1.23;;;1.03;;
14849;SDS011;7517;48.400;11.770;2022-10-22T05:21:51;1.50;;;0.90;;
14849;SDS011;7517;48.400;11.770;2022-10-22T05:24:19;0.70;;;0.70;;
14849;SDS011;7517;48.400;11.770;2022-10-22T05:26:47;2.70;;;0.90;;
14849;SDS011;7517;48.400;11.770;2022-10-22T05:29:15;0.67;;;0.67;;
14849;SDS011;7517;48.400;11.770;2022-10-22T05:31:43;0.60;;;0.53;;
14849;SDS011;7517;48.400;11.770;2022-10-22T05:34:11;1.57;;;0.47;;
14849;SDS011;7517;48.400;11.770;2022-10-22T05:36:40;0.60;;;0.60;;
14849;SDS011;7517;48.400;11.770;2022-10-22T05:39:07;0.63;;;0.63;;
14849;SDS011;7517;48.400;11.770;2022-10-22T05:41:34;0.53;;;0.40;;
14849;SDS011;7517;48.400;11.770;2022-10-22T05:44:04;0.40;;;0.37;;
14849;SDS011;7517;48.400;11.770;2022-10-22T05:46:33;0.40;;;0.40;;
14849;SDS011;7517;48.400;11.770;2022-10-22T05:49:05;0.50;;;0.50;;
14849;SDS011;7517;48.400;11.770;2022-10-22T05:51:35;0.60;;;0.60;;
14849;SDS011;7517;48.400;11.770;2022-10-22T05:54:04;1.00;;;0.50;;
14849;SDS011;7517;48.400;11.770;2022-10-22T05:56:38;0.50;;;0.50;;
14849;SDS011;7517;48.400;11.770;2022-10-22T05:59:05;0.63;;;0.60;;
14849;SDS011;7517;48.400;11.770;2022-10-22T06:01:33;0.60;;;0.57;;
14849;SDS011;7517;48.400;11.770;2022-10-22T06:04:06;0.80;;;0.80;;
14849;SDS011;7517;48.400;11.770;2022-10-22T06:06:44;0.53;;;0.53;;
14849;SDS011;7517;48.400;11.770;2022-10-22T06:09:32;0.63;;;0.63;;
14849;SDS011;7517;48.400;11.770;2022-10-22T06:12:03;0.53;;;0.53;;
14849;SDS011;7517;48.400;11.770;2022-10-22T06:14:37;0.60;;;0.60;;
14849;SDS011;7517;48.400;11.770;2022-10-22T06:17:06;0.70;;;0.57;;
14849;SDS011;7517;48.400;11.770;2022-10-22T06:19:39;0.40;;;0.40;;
14849;SDS011;7517;48.400;11.770;2022-10-22T06:22:07;0.70;;;0.50;;
14849;SDS011;7517;48.400;11.770;2022-10-22T06:24:47;0.50;;;0.50;;
14849;SDS011;7517;48.400;11.770;2022-10-22T06:27:14;0.63;;;0.63;;
14849;SDS011;7517;48.400;11.770;2022-10-22T06:29:47;0.50;;;0.50;;
14849;SDS011;7517;48.400;11.770;2022-10-22T06:32:14;1.20;;;0.63;;
14849;SDS011;7517;48.400;11.770;2022-10-22T06:34:44;1.37;;;1.07;;
14849;SDS011;7517;48.400;11.770;2022-10-22T06:37:17;0.90;;;0.60;;
14849;SDS011;7517;48.400;11.770;2022-10-22T06:39:52;0.50;;;0.50;;
14849;SDS011;7517;48.400;11.770;2022-10-22T06:42:22;0.80;;;0.80;;
14849;SDS011;7517;48.400;11.770;2022-10-22T06:44:57;0.80;;;0.80;;
14849;SDS011;7517;48.400;11.770;2022-10-22T06:47:26;1.43;;;0.90;;
14849;SDS011;7517;48.400;11.770;2022-10-22T06:49:55;0.80;;;0.80;;
14849;SDS011;7517;48.400;11.770;2022-10-22T06:52:27;1.83;;;1.13;;
14849;SDS011;7517;48.400;11.770;2022-10-22T06:54:55;1.10;;;1.00;;
14849;SDS011;7517;48.400;11.770;2022-10-22T06:57:25;1.00;;;0.90;;
14849;SDS011;7517;48.400;11.770;2022-10-22T06:59:54;0.93;;;0.90;;
14849;SDS011;7517;48.400;11.770;2022-10-22T07:02:23;1.27;;;0.90;;
14849;SDS011;7517;48.400;11.770;2022-10-22T07:04:50;2.00;;;1.10;;
14849;SDS011;7517;48.400;11.770;2022-10-22T07:07:17;1.13;;;1.00;;
14849;SDS011;7517;48.400;11.770;2022-10-22T07:09:44;1.83;;;1.70;;
14849;SDS011;7517;48.400;11.770;2022-10-22T07:12:14;1.20;;;1.10;;
14849;SDS011;7517;48.400;11.770;2022-10-22T07:14:43;2.53;;;0.97;;
14849;SDS011;7517;48.400;11.770;2022-10-22T07:17:16;2.23;;;1.27;;
14849;SDS011;7517;48.400;11.770;2022-10-22T07:19:43;1.47;;;1.30;;
14849;SDS011;7517;48.400;11.770;2022-10-22T07:22:17;1.37;;;1.27;;
14849;SDS011;7517;48.400;11.770;2022-10-22T07:24:57;1.23;;;1.13;;
14849;SDS011;7517;48.400;11.770;2022-10-22T07:27:26;1.23;;;0.90;;
14849;SDS011;7517;48.400;11.770;2022-10-22T07:29:55;1.93;;;1.73;;
14849;SDS011;7517;48.400;11.770;2022-10-22T07:32:25;1.10;;;1.00;;
14849;SDS011;7517;48.400;11.770;2022-10-22T07:34:54;1.40;;;1.30;;
14849;SDS011;7517;48.400;11.770;2022-10-22T07:37:21;1.53;;;1.43;;
14849;SDS011;7517;48.400;11.770;2022-10-22T07:39:51;1.50;;;1.40;;
14849;SDS011;7517;48.400;11.770;2022-10-22T07:42:21;0.70;;;0.70;;
14849;SDS011;7517;48.400;11.770;2022-10-22T07:44:53;2.97;;;1.20;;
14849;SDS011;7517;48.400;11.770;2022-10-22T07:47:24;2.10;;;1.30;;
14849;SDS011;7517;48.400;11.770;2022-10-22T07:49:53;2.10;;;1.10;;
14849;SDS011;7517;48.400;11.770;2022-10-22T07:52:22;0.90;;;0.77;;
14849;SDS011;7517;48.400;11.770;2022-10-22T07:54:50;0.73;;;0.73;;
14849;SDS011;7517;48.400;11.770;2022-10-22T07:57:20;1.17;;;0.80;;
14849;SDS011;7517;48.400;11.770;2022-10-22T07:59:49;0.70;;;0.70;;
14849;SDS011;7517;48.400;11.770;2022-10-22T08:02:25;0.60;;;0.60;;
14849;SDS011;7517;48.400;11.770;2022-10-22T08:05:29;0.63;;;0.60;;
14849;SDS011;7517;48.400;11.770;2022-10-22T08:08:01;0.70;;;0.57;;
14849;SDS011;7517;48.400;11.770;2022-10-22T08:10:28;0.77;;;0.53;;
14849;SDS011;7517;48.400;11.770;2022-10-22T08:12:57;0.70;;;0.70;;
14849;SDS011;7517;48.400;11.770;2022-10-22T08:15:27;0.87;;;0.80;;
14849;SDS011;7517;48.400;11.770;2022-10-22T08:17:55;0.70;;;0.70;;
14849;SDS011;7517;48.400;11.770;2022-10-22T08:20:25;0.77;;;0.60;;
14849;SDS011;7517;48.400;11.770;2022-10-22T08:22:55;0.43;;;0.40;;
14849;SDS011;7517;48.400;11.770;2022-10-22T08:25:22;0.90;;;0.60;;
14849;SDS011;7517;48.400;11.770;2022-10-22T08:27:50;0.70;;;0.63;;
14849;SDS011;7517;48.400;11.770;2022-10-22T08:30:17;0.70;;;0.60;;
14849;SDS011;7517;48.400;11.770;2022-10-22T08:32:49;1.00;;;0.70;;
14849;SDS011;7517;48.400;11.770;2022-10-22T08:35:17;0.40;;;0.40;;
14849;SDS011;7517;48.400;11.770;2022-10-22T08:37:50;3.37;;;0.70;;
14849;SDS011;7517;48.400;11.770;2022-10-22T08:40:22;0.50;;;0.50;;
14849;SDS011;7517;48.400;11.770;2022-10-22T08:43:01;0.60;;;0.60;;
14849;SDS011;7517;48.400;11.770;2022-10-22T08:45:49;1.90;;;1.00;;
14849;SDS011;7517;48.400;11.770;2022-10-22T08:48:42;1.07;;;0.97;;
14849;SDS011;7517;48.400;11.770;2022-10-22T08:51:14;1.40;;;1.23;;
14849;SDS011;7517;48.400;11.770;2022-10-22T08:53:48;1.10;;;0.90;;
14849;SDS011;7517;48.400;11.770;2022-10-22T08:56:36;0.60;;;0.60;;
14849;SDS011;7517;48.400;11.770;2022-10-22T08:59:16;0.73;;;0.60;;
14849;SDS011;7517;48.400;11.770;2022-10-22T09:01:52;0.47;;;0.40;;
14849;SDS011;7517;48.400;11.770;2022-10-22T09:04:22;0.70;;;0.70;;
14849;SDS011;7517;48.400;11.770;2022-10-22T09:06:58;0.70;;;0.40;;
14849;SDS011;7517;48.400;11.770;2022-10-22T09:09:27;1.20;;;0.40;;
14849;SDS011;7517;48.400;11.770;2022-10-22T09:11:59;2.73;;;0.53;;
14849;SDS011;7517;48.400;11.770;2022-10-22T09:14:29;0.57;;;0.40;;
14849;SDS011;7517;48.400;11.770;2022-10-22T09:20:02;0.60;;;0.40;;
14849;SDS011;7517;48.400;11.770;2022-10-22T09:22:53;0.60;;;0.50;;
14849;SDS011;7517;48.400;11.770;2022-10-22T09:25:39;0.50;;;0.50;;
14849;SDS011;7517;48.400;11.770;2022-10-22T09:28:11;0.47;;;0.47;;
14849;SDS011;7517;48.400;11.770;2022-10-22T09:30:38;0.70;;;0.60;;
14849;SDS011;7517;48.400;11.770;2022-10-22T09:33:10;0.50;;;0.50;;
14849;SDS011;7517;48.400;11.770;2022-10-22T09:35:51;0.37;;;0.37;;
14849;SDS011;7517;48.400;11.770;2022-10-22T09:38:22;1.13;;;0.53;;
14849;SDS011;7517;48.400;11.770;2022-10-22T09:40:57;0.30;;;0.30;;
14849;SDS011;7517;48.400;11.770;2022-10-22T09:43:27;0.40;;;0.40;;
14849;SDS011;7517;48.400;11.770;2022-10-22T09:46:01;0.50;;;0.50;;
14849;SDS011;7517;48.400;11.770;2022-10-22T09:48:32;0.30;;;0.30;;
14849;SDS011;7517;48.400;11.770;2022-10-22T09:51:06;0.40;;;0.40;;
14849;SDS011;7517;48.400;11.770;2022-10-22T09:53:44;0.50;;;0.43;;
14849;SDS011;7517;48.400;11.770;2022-10-22T09:56:26;1.00;;;0.50;;
14849;SDS011;7517;48.400;11.770;2022-10-22T09:59:01;1.03;;;0.60;;
14849;SDS011;7517;48.400;11.770;2022-10-22T10:01:35;0.50;;;0.50;;
14849;SDS011;7517;48.400;11.770;2022-10-22T10:04:05;1.17;;;0.60;;
14849;SDS011;7517;48.400;11.770;2022-10-22T10:06:41;0.50;;;0.50;;
14849;SDS011;7517;48.400;11.770;2022-10-22T10:09:12;0.30;;;0.30;;
14849;SDS011;7517;48.400;11.770;2022-10-22T10:11:44;1.03;;;0.60;;
14849;SDS011;7517;48.400;11.770;2022-10-22T10:14:18;0.30;;;0.30;;
14849;SDS011;7517;48.400;11.770;2022-10-22T10:16:56;0.30;;;0.30;;
14849;SDS011;7517;48.400;11.770;2022-10-22T10:19:39;0.47;;;0.17;;
14849;SDS011;7517;48.400;11.770;2022-10-22T10:28:18;0.40;;;0.30;;
14849;SDS011;7517;48.400;11.770;2022-10-22T10:31:01;2.00;;;0.40;;
14849;SDS011;7517;48.400;11.770;2022-10-22T10:33:41;1.00;;;0.30;;
14849;SDS011;7517;48.400;11.770;2022-10-22T10:36:22;0.37;;;0.23;;
14849;SDS011;7517;48.400;11.770;2022-10-22T10:39:00;1.20;;;0.30;;
14849;SDS011;7517;48.400;11.770;2022-10-22T10:41:37;0.40;;;0.40;;
14849;SDS011;7517;48.400;11.770;2022-10-22T10:44:28;0.30;;;0.30;;
14849;SDS011;7517;48.400;11.770;2022-10-22T10:47:12;0.30;;;0.30;;
14849;SDS011;7517;48.400;11.770;2022-10-22T10:49:56;0.97;;;0.20;;
14849;SDS011;7517;48.400;11.770;2022-10-22T10:52:44;0.47;;;0.47;;
14849;SDS011;7517;48.400;11.770;2022-10-22T10:55:28;0.60;;;0.20;;
14849;SDS011;7517;48.400;11.770;2022-10-22T10:58:05;0.60;;;0.40;;
14849;SDS011;7517;48.400;11.770;2022-10-22T11:00:42;0.30;;;0.30;;
14849;SDS011;7517;48.400;11.770;2022-10-22T11:06:42;0.50;;;0.50;;
14849;SDS011;7517;48.400;11.770;2022-10-22T11:09:13;0.60;;;0.60;;
14849;SDS011;7517;48.400;11.770;2022-10-22T11:11:52;1.00;;;0.80;;
14849;SDS011;7517;48.400;11.770;2022-10-22T11:14:28;0.90;;;0.90;;
14849;SDS011;7517;48.400;11.770;2022-10-22T11:17:05;1.00;;;0.90;;
14849;SDS011;7517;48.400;11.770;2022-10-22T11:19:41;0.80;;;0.80;;
14849;SDS011;7517;48.400;11.770;2022-10-22T11:22:14;2.10;;;0.90;;
14849;SDS011;7517;48.400;11.770;2022-10-22T11:24:48;0.80;;;0.63;;
14849;SDS011;7517;48.400;11.770;2022-10-22T11:27:26;0.67;;;0.67;;
14849;SDS011;7517;48.400;11.770;2022-10-22T11:30:03;0.57;;;0.57;;
14849;SDS011;7517;48.400;11.770;2022-10-22T11:32:37;0.90;;;0.60;;
14849;SDS011;7517;48.400;11.770;2022-10-22T11:35:08;1.70;;;0.50;;
14849;SDS011;7517;48.400;11.770;2022-10-22T11:37:41;0.60;;;0.60;;
14849;SDS011;7517;48.400;11.770;2022-10-22T11:40:13;0.40;;;0.40;;
14849;SDS011;7517;48.400;11.770;2022-10-22T11:42:47;0.40;;;0.40;;
14849;SDS011;7517;48.400;11.770;2022-10-22T11:45:26;0.63;;;0.47;;
14849;SDS011;7517;48.400;11.770;2022-10-22T11:48:04;0.70;;;0.50;;
14849;SDS011;7517;48.400;11.770;2022-10-22T11:50:44;0.20;;;0.20;;
14849;SDS011;7517;48.400;11.770;2022-10-22T11:53:17;0.40;;;0.30;;
14849;SDS011;7517;48.400;11.770;2022-10-22T11:55:55;1.07;;;0.60;;
14849;SDS011;7517;48.400;11.770;2022-10-22T11:58:33;0.40;;;0.40;;
14849;SDS011;7517;48.400;11.770;2022-10-22T12:01:20;1.40;;;0.20;;
14849;SDS011;7517;48.400;11.770;2022-10-22T12:06:57;0.83;;;0.30;;
14849;SDS011;7517;48.400;11.770;2022-10-22T12:09:26;0.43;;;0.40;;
14849;SDS011;7517;48.400;11.770;2022-10-22T12:12:02;0.40;;;0.40;;
14849;SDS011;7517;48.400;11.770;2022-10-22T12:14:50;0.60;;;0.33;;
14849;SDS011;7517;48.400;11.770;2022-10-22T12:17:20;0.50;;;0.50;;
14849;SDS011;7517;48.400;11.770;2022-10-22T12:19:50;0.53;;;0.53;;
14849;SDS011;7517;48.400;11.770;2022-10-22T12:22:25;0.50;;;0.50;;
14849;SDS011;7517;48.400;11.770;2022-10-22T12:24:56;0.40;;;0.40;;
14849;SDS011;7517;48.400;11.770;2022-10-22T12:27:32;0.30;;;0.30;;
14849;SDS011;7517;48.400;11.770;2022-10-22T12:30:14;0.83;;;0.57;;
14849;SDS011;7517;48.400;11.770;2022-10-22T12:32:45;0.50;;;0.50;;
14849;SDS011;7517;48.400;11.770;2022-10-22T12:35:14;0.83;;;0.70;;
14849;SDS011;7517;48.400;11.770;2022-10-22T12:37:44;0.50;;;0.50;;
14849;SDS011;7517;48.400;11.770;2022-10-22T12:40:17;0.50;;;0.50;;
14849;SDS011;7517;48.400;11.770;2022-10-22T12:42:48;0.43;;;0.43;;
14849;SDS011;7517;48.400;11.770;2022-10-22T12:45:24;1.13;;;0.50;;
14849;SDS011;7517;48.400;11.770;2022-10-22T12:48:03;0.40;;;0.40;;
14849;SDS011;7517;48.400;11.770;2022-10-22T12:50:50;1.20;;;0.47;;
14849;SDS011;7517;48.400;11.770;2022-10-22T12:53:34;1.47;;;0.70;;
14849;SDS011;7517;48.400;11.770;2022-10-22T12:56:10;0.50;;;0.50;;
14849;SDS011;7517;48.400;11.770;2022-10-22T12:58:47;0.80;;;0.60;;
14849;SDS011;7517;48.400;11.770;2022-10-22T13:01:23;1.03;;;0.60;;
14849;SDS011;7517;48.400;11.770;2022-10-22T13:04:05;1.27;;;0.50;;
14849;SDS011;7517;48.400;11.770;2022-10-22T13:06:49;0.50;;;0.50;;
14849;SDS011;7517;48.400;11.770;2022-10-22T13:09:36;0.70;;;0.60;;
14849;SDS011;7517;48.400;11.770;2022-10-22T13:12:22;0.43;;;0.30;;
14849;SDS011;7517;48.400;11.770;2022-10-22T13:14:53;0.40;;;0.33;;
14849;SDS011;7517;48.400;11.770;2022-10-22T13:17:38;0.47;;;0.47;;
14849;SDS011;7517;48.400;11.770;2022-10-22T13:20:17;0.33;;;0.30;;
14849;SDS011;7517;48.400;11.770;2022-10-22T13:22:53;0.30;;;0.30;;
14849;SDS011;7517;48.400;11.770;2022-10-22T13:25:27;0.80;;;0.50;;
14849;SDS011;7517;48.400;11.770;2022-10-22T13:28:09;0.60;;;0.30;;
14849;SDS011;7517;48.400;11.770;2022-10-22T13:30:57;0.20;;;0.20;;
14849;SDS011;7517;48.400;11.770;2022-10-22T13:33:39;1.23;;;0.50;;
14849;SDS011;7517;48.400;11.770;2022-10-22T13:36:27;0.30;;;0.30;;
14849;SDS011;7517;48.400;11.770;2022-10-22T13:39:13;0.40;;;0.40;;
14849;SDS011;7517;48.400;11.770;2022-10-22T13:41:44;0.80;;;0.40;;
14849;SDS011;7517;48.400;11.770;2022-10-22T13:44:15;0.37;;;0.33;;
14849;SDS011;7517;48.400;11.770;2022-10-22T13:46:46;0.50;;;0.50;;
14849;SDS011;7517;48.400;11.770;2022-10-22T13:49:18;1.20;;;0.37;;
14849;SDS011;7517;48.400;11.770;2022-10-22T13:52:01;0.67;;;0.40;;
14849;SDS011;7517;48.400;11.770;2022-10-22T13:54:46;0.60;;;0.40;;
14849;SDS011;7517;48.400;11.770;2022-10-22T13:57:14;0.53;;;0.50;;
14849;SDS011;7517;48.400;11.770;2022-10-22T13:59:50;0.30;;;0.30;;
14849;SDS011;7517;48.400;11.770;2022-10-22T14:02:25;0.60;;;0.60;;
14849;SDS011;7517;48.400;11.770;2022-10-22T14:05:01;0.30;;;0.30;;
14849;SDS011;7517;48.400;11.770;2022-10-22T14:07:33;0.30;;;0.27;;
14849;SDS011;7517;48.400;11.770;2022-10-22T14:10:04;0.93;;;0.50;;
14849;SDS011;7517;48.400;11.770;2022-10-22T14:12:48;0.47;;;0.47;;
14849;SDS011;7517;48.400;11.770;2022-10-22T14:15:21;0.40;;;0.30;;
14849;SDS011;7517;48.400;11.770;2022-10-22T14:18:00;0.30;;;0.30;;
14849;SDS011;7517;48.400;11.770;2022-10-22T14:20:34;0.30;;;0.30;;
14849;SDS011;7517;48.400;11.770;2022-10-22T14:23:10;0.30;;;0.30;;
14849;SDS011;7517;48.400;11.770;2022-10-22T14:25:45;1.20;;;0.40;;
14849;SDS011;7517;48.400;11.770;2022-10-22T14:28:17;0.50;;;0.40;;
14849;SDS011;7517;48.400;11.770;2022-10-22T14:30:45;0.93;;;0.93;;
14849;SDS011;7517;48.400;11.770;2022-10-22T14:33:20;1.27;;;0.40;;
14849;SDS011;7517;48.400;11.770;2022-10-22T14:35:58;0.30;;;0.30;;
14849;SDS011;7517;48.400;11.770;2022-10-22T14:38:27;1.07;;;0.43;;
14849;SDS011;7517;48.400;11.770;2022-10-22T14:40:56;0.40;;;0.40;;
14849;SDS011;7517;48.400;11.770;2022-10-22T14:43:29;0.43;;;0.30;;
14849;SDS011;7517;48.400;11.770;2022-10-22T14:46:03;0.73;;;0.30;;
14849;SDS011;7517;48.400;11.770;2022-10-22T14:48:37;1.63;;;0.50;;
14849;SDS011;7517;48.400;11.770;2022-10-22T14:51:10;0.77;;;0.47;;
14849;SDS011;7517;48.400;11.770;2022-10-22T14:53:52;0.50;;;0.50;;
14849;SDS011;7517;48.400;11.770;2022-10-22T14:56:30;0.40;;;0.40;;
14849;SDS011;7517;48.400;11.770;2022-10-22T14:59:06;0.50;;;0.30;;
14849;SDS011;7517;48.400;11.770;2022-10-22T15:01:55;0.97;;;0.40;;
14849;SDS011;7517;48.400;11.770;2022-10-22T15:04:34;0.30;;;0.30;;
14849;SDS011;7517;48.400;11.770;2022-10-22T15:07:07;0.40;;;0.40;;
14849;SDS011;7517;48.400;11.770;2022-10-22T15:09:37;0.33;;;0.33;;
14849;SDS011;7517;48.400;11.770;2022-10-22T15:12:05;0.30;;;0.30;;
14849;SDS011;7517;48.400;11.770;2022-10-22T15:14:36;0.47;;;0.47;;
14849;SDS011;7517;48.400;11.770;2022-10-22T15:17:07;0.30;;;0.30;;
14849;SDS011;7517;48.400;11.770;2022-10-22T15:19:39;1.07;;;0.30;;
14849;SDS011;7517;48.400;11.770;2022-10-22T15:22:14;0.53;;;0.27;;
14849;SDS011;7517;48.400;11.770;2022-10-22T15:24:43;0.40;;;0.40;;
14849;SDS011;7517;48.400;11.770;2022-10-22T15:27:14;0.40;;;0.40;;
14849;SDS011;7517;48.400;11.770;2022-10-22T15:29:47;0.30;;;0.30;;
14849;SDS011;7517;48.400;11.770;2022-10-22T15:32:25;0.53;;;0.43;;
14849;SDS011;7517;48.400;11.770;2022-10-22T15:35:10;0.87;;;0.80;;
14849;SDS011;7517;48.400;11.770;2022-10-22T15:37:54;0.97;;;0.73;;
14849;SDS011;7517;48.400;11.770;2022-10-22T15:40:40;0.97;;;0.67;;
14849;SDS011;7517;48.400;11.770;2022-10-22T15:43:39;1.47;;;0.73;;